createdAt,value
2018-08-30T00:00:17.037Z,50.47
2018-08-30T00:01:27.261Z,49.99
2018-08-30T00:02:37.197Z,49.9
2018-08-30T00:03:47.091Z,50.47
2018-08-30T00:04:57.256Z,50.38
2018-08-30T00:06:07.165Z,50.57
2018-08-30T00:07:17.144Z,49.9
2018-08-30T00:08:27.305Z,49.7
2018-08-30T00:09:37.511Z,49.9
2018-08-30T00:10:47.648Z,50.28
2018-08-30T00:11:57.827Z,50.47
2018-08-30T00:13:08.022Z,50.67
2018-08-30T00:14:18.156Z,50.47
2018-08-30T00:15:27.924Z,50.76
2018-08-30T00:16:37.824Z,51.15
2018-08-30T00:17:47.964Z,51.15
2018-08-30T00:18:58.114Z,51.25
2018-08-30T00:20:07.885Z,51.25
2018-08-30T00:21:18.321Z,51.25
2018-08-30T00:22:29.438Z,51.34
2018-08-30T00:23:39.234Z,51.92
2018-08-30T00:24:49.366Z,52.01
2018-08-30T00:25:59.516Z,51.92
2018-08-30T00:27:09.753Z,52.69
2018-08-30T00:28:20.900Z,52.5
2018-08-30T00:29:30.784Z,52.59
2018-08-30T00:30:40.960Z,53.17
2018-08-30T00:31:51.147Z,53.37
2018-08-30T00:33:01.379Z,53.47
2018-08-30T00:34:11.328Z,53.95
2018-08-30T00:35:20.942Z,54.33
2018-08-30T00:36:30.856Z,54.62
2018-08-30T00:37:41.022Z,54.21
2018-08-30T00:38:51.162Z,54.62
2018-08-30T00:40:01.291Z,54.91
2018-08-30T00:41:11.491Z,54.82
2018-08-30T00:42:21.769Z,55.3
2018-08-30T00:43:31.917Z,55.88
2018-08-30T00:44:42.197Z,55.88
2018-08-30T00:45:52.072Z,55.88
2018-08-30T00:47:02.199Z,55.85
2018-08-30T00:48:13.398Z,55.76
2018-08-30T00:49:23.521Z,56.46
2018-08-30T00:50:33.678Z,57.68
2018-08-30T00:51:43.996Z,57.78
2018-08-30T00:52:54.221Z,58.55
2018-08-30T00:54:04.512Z,59.23
2018-08-30T00:55:14.697Z,60.1
2018-08-30T00:56:24.869Z,60.1
2018-08-30T00:57:35.047Z,60.68
2018-08-30T00:58:45.231Z,60.58
2018-08-30T00:59:55.393Z,61.25
2018-08-30T01:01:05.658Z,62.31
2018-08-30T01:02:15.848Z,62.09
2018-08-30T01:03:25.731Z,62.7
2018-08-30T01:04:35.918Z,62.99
2018-08-30T01:05:46.166Z,63.57
2018-08-30T01:06:56.014Z,63.63
2018-08-30T01:08:06.234Z,64.59
2018-08-30T01:09:16.418Z,65.17
2018-08-30T01:10:26.606Z,65.17
2018-08-30T01:11:36.481Z,65.47
2018-08-30T01:12:46.350Z,64.98
2018-08-30T01:13:56.486Z,65.37
2018-08-30T01:15:06.631Z,65.66
2018-08-30T01:16:16.485Z,65.95
2018-08-30T01:17:26.623Z,65.56
2018-08-30T01:18:36.741Z,65.56
2018-08-30T01:19:46.865Z,64.89
2018-08-30T01:20:57.138Z,65.08
2018-08-30T01:22:07.313Z,65.17
2018-08-30T01:23:17.512Z,64.98
2018-08-30T01:24:27.795Z,65.56
2018-08-30T01:25:37.955Z,66.04
2018-08-30T01:26:47.850Z,66.04
2018-08-30T01:27:57.976Z,66.24
2018-08-30T01:29:08.114Z,66.33
2018-08-30T01:30:18.256Z,66.24
2018-08-30T01:31:28.152Z,65.66
2018-08-30T01:32:38.283Z,65.47
2018-08-30T01:33:48.427Z,65.56
2018-08-30T01:34:58.553Z,65.66
2018-08-30T01:36:08.330Z,65.85
2018-08-30T01:37:18.442Z,65.95
2018-08-30T01:38:28.594Z,65.95
2018-08-30T01:39:39.691Z,66.43
2018-08-30T01:40:49.485Z,66.3
2018-08-30T01:41:59.624Z,66.3
2018-08-30T01:43:09.585Z,66.39
2018-08-30T01:44:19.723Z,66.88
2018-08-30T01:45:29.884Z,66.59
2018-08-30T01:46:39.753Z,66.49
2018-08-30T01:47:49.899Z,66.39
2018-08-30T01:49:00.021Z,66.78
2018-08-30T01:50:09.900Z,66.2
2018-08-30T01:51:20.993Z,66.33
2018-08-30T01:52:31.124Z,66.39
2018-08-30T01:53:40.989Z,66.62
2018-08-30T01:54:51.190Z,66.3
2018-08-30T01:56:01.358Z,66.2
2018-08-30T01:57:11.502Z,66.3
2018-08-30T01:58:21.678Z,66.49
2018-08-30T01:59:31.896Z,66.3
2018-08-30T02:00:42.040Z,66.49
2018-08-30T02:01:51.905Z,66.2
2018-08-30T02:03:01.765Z,66.3
2018-08-30T02:04:11.906Z,66.97
2018-08-30T02:05:22.092Z,66.59
2018-08-30T02:06:32.370Z,66.49
2018-08-30T02:07:42.245Z,66.78
2018-08-30T02:08:52.489Z,66.49
2018-08-30T02:10:02.603Z,66.39
2018-08-30T02:11:12.763Z,66.49
2018-08-30T02:12:22.909Z,66.49
2018-08-30T02:13:33.072Z,66.3
2018-08-30T02:14:43.250Z,66.69
2018-08-30T02:15:52.945Z,66.49
2018-08-30T02:17:03.102Z,66.59
2018-08-30T02:18:12.855Z,67.55
2018-08-30T02:19:22.872Z,67.16
2018-08-30T02:20:33.014Z,67.65
2018-08-30T02:21:42.875Z,67.74
2018-08-30T02:22:53.004Z,67.65
2018-08-30T02:24:03.226Z,67.94
2018-08-30T02:25:14.346Z,67.26
2018-08-30T02:26:24.157Z,67.36
2018-08-30T02:27:34.364Z,67.07
2018-08-30T02:28:44.645Z,67.46
2018-08-30T02:29:54.887Z,67.36
2018-08-30T02:31:05.089Z,67.46
2018-08-30T02:32:15.298Z,67.26
2018-08-30T02:33:25.437Z,67.55
2018-08-30T02:34:35.634Z,67.65
2018-08-30T02:35:45.846Z,67.94
2018-08-30T02:36:56.175Z,67.07
2018-08-30T02:38:06.042Z,67.36
2018-08-30T02:39:16.181Z,67.16
2018-08-30T02:40:26.042Z,67.94
2018-08-30T02:41:36.167Z,67.84
2018-08-30T02:42:46.066Z,68.71
2018-08-30T02:43:56.185Z,69.09
2018-08-30T02:45:06.323Z,68.61
2018-08-30T02:46:16.469Z,68.61
2018-08-30T02:47:26.606Z,68.71
2018-08-30T02:48:36.747Z,68.61
2018-08-30T02:49:46.874Z,68.61
2018-08-30T02:50:56.998Z,69.48
2018-08-30T02:52:06.773Z,70.31
2018-08-30T02:53:16.996Z,70.02
2018-08-30T02:54:27.120Z,69.06
2018-08-30T02:55:37.329Z,69.54
2018-08-30T02:56:47.106Z,69.45
2018-08-30T02:57:57.256Z,69.54
2018-08-30T02:59:07.414Z,69.15
2018-08-30T03:00:17.623Z,68.87
2018-08-30T03:01:27.843Z,69.06
2018-08-30T03:02:38.071Z,69.64
2018-08-30T03:03:48.337Z,70.02
2018-08-30T03:04:58.560Z,70.6
2018-08-30T03:06:08.887Z,70.6
2018-08-30T03:07:19.046Z,70.98
2018-08-30T03:08:29.276Z,70.89
2018-08-30T03:09:39.491Z,70.79
2018-08-30T03:10:49.656Z,70.98
2018-08-30T03:11:59.573Z,70.79
2018-08-30T03:13:09.901Z,71.76
2018-08-30T03:14:19.947Z,71.76
2018-08-30T03:15:30.096Z,72.05
2018-08-30T03:16:40.279Z,72.63
2018-08-30T03:17:50.329Z,72.81
2018-08-30T03:19:01.545Z,73.16
2018-08-30T03:20:11.962Z,73.36
2018-08-30T03:21:22.143Z,73.65
2018-08-30T03:22:32.343Z,74.32
2018-08-30T03:23:42.511Z,74.8
2018-08-30T03:24:52.653Z,75.09
2018-08-30T03:26:02.770Z,75.19
2018-08-30T03:27:12.896Z,75.44
2018-08-30T03:28:23.104Z,75.24
2018-08-30T03:29:32.967Z,76.4
2018-08-30T03:30:43.313Z,76.21
2018-08-30T03:31:54.222Z,76.98
2018-08-30T03:33:04.361Z,76.59
2018-08-30T03:34:14.514Z,76.94
2018-08-30T03:35:24.654Z,76.98
2018-08-30T03:36:34.774Z,77.75
2018-08-30T03:37:44.962Z,78.03
2018-08-30T03:38:55.103Z,78.9
2018-08-30T03:40:05.460Z,79.25
2018-08-30T03:41:15.612Z,79.73
2018-08-30T03:42:25.519Z,80.02
2018-08-30T03:43:35.663Z,79.92
2018-08-30T03:44:45.799Z,79.92
2018-08-30T03:45:55.915Z,80.11
2018-08-30T03:47:06.218Z,79.92
2018-08-30T03:48:16.498Z,80.11
2018-08-30T03:49:26.637Z,80.21
2018-08-30T03:50:36.263Z,80.21
2018-08-30T03:51:46.513Z,80.11
2018-08-30T03:52:56.398Z,80.4
2018-08-30T03:54:06.521Z,80.79
2018-08-30T03:55:16.057Z,80.5
2018-08-30T03:56:26.674Z,80.69
2018-08-30T03:57:36.840Z,80.88
2018-08-30T03:58:46.982Z,80.88
2018-08-30T03:59:57.117Z,80.98
2018-08-30T04:01:07.326Z,81.75
2018-08-30T04:02:17.499Z,81.56
2018-08-30T04:03:27.747Z,81.07
2018-08-30T04:04:37.932Z,81.46
2018-08-30T04:05:48.140Z,81.46
2018-08-30T04:06:57.973Z,81.37
2018-08-30T04:08:08.090Z,82.04
2018-08-30T04:09:18.310Z,82.14
2018-08-30T04:10:28.090Z,82.04
2018-08-30T04:11:38.254Z,82.04
2018-08-30T04:12:48.801Z,81.65
2018-08-30T04:13:58.932Z,82.23
2018-08-30T04:15:09.081Z,82.52
2018-08-30T04:16:18.939Z,81.94
2018-08-30T04:17:29.115Z,82.14
2018-08-30T04:18:39.239Z,82.42
2018-08-30T04:19:49.375Z,82.71
2018-08-30T04:21:00.586Z,82.42
2018-08-30T04:22:10.996Z,82.71
2018-08-30T04:23:21.347Z,83.09
2018-08-30T04:24:31.580Z,83.19
2018-08-30T04:25:41.480Z,83.09
2018-08-30T04:26:51.663Z,83.48
2018-08-30T04:28:01.958Z,83.58
2018-08-30T04:29:12.119Z,84.16
2018-08-30T04:30:22.285Z,83.48
2018-08-30T04:31:32.640Z,84.06
2018-08-30T04:32:42.777Z,83.96
2018-08-30T04:33:52.929Z,83.96
2018-08-30T04:35:03.096Z,84.25
2018-08-30T04:36:13.251Z,84.34
2018-08-30T04:37:23.204Z,84.34
2018-08-30T04:38:33.444Z,85.02
2018-08-30T04:39:43.598Z,84.63
2018-08-30T04:40:53.781Z,84.25
2018-08-30T04:42:03.780Z,84.44
2018-08-30T04:43:14.080Z,84.54
2018-08-30T04:44:24.205Z,84.63
2018-08-30T04:45:34.350Z,84.44
2018-08-30T04:46:44.222Z,84.25
2018-08-30T04:47:54.336Z,84.54
2018-08-30T04:49:03.897Z,84.73
2018-08-30T04:50:14.311Z,84.25
2018-08-30T04:51:24.922Z,84.25
2018-08-30T04:52:35.200Z,84.44
2018-08-30T04:53:45.376Z,84.44
2018-08-30T04:54:55.272Z,84.63
2018-08-30T04:56:05.450Z,84.54
2018-08-30T04:57:15.579Z,84.92
2018-08-30T04:58:25.730Z,84.06
2018-08-30T04:59:35.990Z,84.06
2018-08-30T05:00:45.808Z,84.16
2018-08-30T05:01:56.151Z,83.96
2018-08-30T05:03:06.267Z,84.06
2018-08-30T05:04:16.418Z,83.96
2018-08-30T05:05:26.729Z,83.86
2018-08-30T05:06:36.896Z,83.96
2018-08-30T05:07:47.130Z,84.16
2018-08-30T05:08:57.395Z,83.77
2018-08-30T05:10:07.781Z,83.39
2018-08-30T05:11:18.377Z,83.86
2018-08-30T05:12:28.716Z,84.06
2018-08-30T05:13:38.832Z,83.96
2018-08-30T05:14:49.020Z,84.16
2018-08-30T05:15:58.889Z,84.25
2018-08-30T05:17:08.724Z,84.54
2018-08-30T05:18:18.614Z,84.06
2018-08-30T05:19:28.736Z,84.16
2018-08-30T05:20:38.923Z,84.34
2018-08-30T05:21:49.035Z,84.34
2018-08-30T05:22:59.251Z,83.96
2018-08-30T05:24:09.828Z,83.86
2018-08-30T05:25:19.880Z,83.67
2018-08-30T05:26:29.756Z,84.06
2018-08-30T05:27:40.623Z,83.86
2018-08-30T05:28:50.740Z,83.77
2018-08-30T05:30:01.034Z,84.16
2018-08-30T05:31:10.905Z,84.25
2018-08-30T05:32:22.089Z,83.67
2018-08-30T05:33:32.247Z,84.16
2018-08-30T05:34:42.402Z,84.44
2018-08-30T05:35:52.727Z,84.92
2018-08-30T05:37:02.958Z,84.21
2018-08-30T05:38:13.071Z,84.78
2018-08-30T05:39:23.070Z,84.54
2018-08-30T05:40:32.717Z,84.63
2018-08-30T05:41:42.370Z,84.34
2018-08-30T05:42:52.606Z,84.3
2018-08-30T05:44:02.524Z,84.54
2018-08-30T05:45:12.642Z,84.73
2018-08-30T05:46:22.834Z,84.16
2018-08-30T05:47:33.019Z,83.86
2018-08-30T05:48:42.951Z,83.67
2018-08-30T05:49:53.150Z,83.86
2018-08-30T05:51:03.369Z,83.96
2018-08-30T05:52:13.626Z,83.96
2018-08-30T05:53:23.819Z,84.06
2018-08-30T05:54:33.600Z,83.48
2018-08-30T05:55:43.737Z,83.29
2018-08-30T05:56:54.000Z,83
2018-08-30T05:58:04.715Z,82.9
2018-08-30T05:59:14.932Z,82.9
2018-08-30T06:00:25.164Z,83.39
2018-08-30T06:01:35.362Z,83.19
2018-08-30T06:02:45.645Z,82.81
2018-08-30T06:03:55.798Z,83.48
2018-08-30T06:05:05.951Z,83
2018-08-30T06:06:16.077Z,83
2018-08-30T06:07:26.245Z,83.48
2018-08-30T06:08:36.509Z,83.39
2018-08-30T06:09:46.669Z,83
2018-08-30T06:10:56.791Z,83
2018-08-30T06:12:06.975Z,83.29
2018-08-30T06:13:17.477Z,83
2018-08-30T06:14:27.751Z,83
2018-08-30T06:15:37.964Z,83.19
2018-08-30T06:16:48.165Z,84.25
2018-08-30T06:17:58.339Z,83.39
2018-08-30T06:19:08.588Z,83.67
2018-08-30T06:20:18.500Z,83.39
2018-08-30T06:21:28.673Z,84.16
2018-08-30T06:22:38.283Z,83.96
2018-08-30T06:23:48.460Z,83.77
2018-08-30T06:24:58.404Z,84.16
2018-08-30T06:26:08.290Z,83.96
2018-08-30T06:27:18.457Z,84.06
2018-08-30T06:28:28.612Z,84.06
2018-08-30T06:29:38.739Z,84.16
2018-08-30T06:30:48.633Z,83.96
2018-08-30T06:31:58.758Z,84.06
2018-08-30T06:33:08.920Z,84.06
2018-08-30T06:34:19.083Z,84.25
2018-08-30T06:35:29.256Z,84.73
2018-08-30T06:36:39.414Z,84.01
2018-08-30T06:37:49.613Z,84.88
2018-08-30T06:38:59.843Z,84.5
2018-08-30T06:40:10.005Z,84.4
2018-08-30T06:41:20.144Z,84.11
2018-08-30T06:42:30.266Z,84.69
2018-08-30T06:43:40.144Z,84.3
2018-08-30T06:44:50.313Z,84.3
2018-08-30T06:46:00.084Z,84.11
2018-08-30T06:47:10.466Z,83.83
2018-08-30T06:48:20.726Z,84.78
2018-08-30T06:49:30.660Z,84.3
2018-08-30T06:50:40.783Z,85.27
2018-08-30T06:51:50.997Z,84.78
2018-08-30T06:53:01.192Z,85.17
2018-08-30T06:54:11.441Z,84.78
2018-08-30T06:55:21.681Z,84.59
2018-08-30T06:56:32.070Z,85.27
2018-08-30T06:57:42.242Z,84.59
2018-08-30T06:58:52.387Z,84.59
2018-08-30T07:00:02.519Z,85.27
2018-08-30T07:01:12.791Z,84.88
2018-08-30T07:02:23.021Z,84.5
2018-08-30T07:03:33.236Z,84.88
2018-08-30T07:04:43.493Z,84.59
2018-08-30T07:05:53.694Z,84.69
2018-08-30T07:07:03.582Z,84.88
2018-08-30T07:08:13.827Z,84.78
2018-08-30T07:09:24.707Z,84.59
2018-08-30T07:10:34.855Z,84.4
2018-08-30T07:11:44.978Z,84.5
2018-08-30T07:13:27.130Z,84.5
2018-08-30T07:14:37.650Z,84.59
2018-08-30T07:15:48.022Z,84.78
2018-08-30T07:16:58.239Z,84.4
2018-08-30T07:18:08.491Z,84.69
2018-08-30T07:19:18.652Z,84.69
2018-08-30T07:20:28.980Z,84.01
2018-08-30T07:21:39.173Z,84.3
2018-08-30T07:22:49.333Z,84.01
2018-08-30T07:23:59.532Z,84.5
2018-08-30T07:25:09.580Z,84.3
2018-08-30T07:26:19.894Z,84.5
2018-08-30T07:27:30.044Z,84.69
2018-08-30T07:28:40.337Z,84.63
2018-08-30T07:29:50.622Z,84.69
2018-08-30T07:31:00.827Z,84.59
2018-08-30T07:32:10.958Z,84.3
2018-08-30T07:33:21.108Z,84.3
2018-08-30T07:34:31.393Z,84.4
2018-08-30T07:35:41.908Z,84.5
2018-08-30T07:36:52.068Z,84.11
2018-08-30T07:38:02.254Z,84.69
2018-08-30T07:39:12.440Z,84.11
2018-08-30T07:40:22.306Z,84.44
2018-08-30T07:41:32.435Z,84.25
2018-08-30T07:42:43.699Z,84.54
2018-08-30T07:43:53.590Z,83.92
2018-08-30T07:45:03.485Z,83.77
2018-08-30T07:46:13.738Z,84.25
2018-08-30T07:47:24.198Z,83.96
2018-08-30T07:48:33.914Z,84.34
2018-08-30T07:49:44.192Z,83.96
2018-08-30T07:50:54.189Z,84.25
2018-08-30T07:52:04.322Z,83.86
2018-08-30T07:53:14.498Z,84.25
2018-08-30T07:54:24.733Z,84.54
2018-08-30T07:55:34.833Z,83.92
2018-08-30T07:56:44.977Z,84.54
2018-08-30T07:57:55.142Z,84.21
2018-08-30T07:59:05.279Z,84.16
2018-08-30T08:00:15.144Z,84.06
2018-08-30T08:01:25.372Z,84.34
2018-08-30T08:02:35.287Z,84.06
2018-08-30T08:03:46.655Z,84.06
2018-08-30T08:04:56.884Z,84.16
2018-08-30T08:06:06.892Z,84.34
2018-08-30T08:07:17.495Z,84.63
2018-08-30T08:08:28.091Z,84.06
2018-08-30T08:09:39.260Z,84.06
2018-08-30T08:10:49.605Z,84.06
2018-08-30T08:11:59.870Z,83.67
2018-08-30T08:13:10.444Z,83.81
2018-08-30T08:14:20.592Z,83.91
2018-08-30T08:15:30.887Z,84
2018-08-30T08:16:41.093Z,83.72
2018-08-30T08:17:51.350Z,84.1
2018-08-30T08:19:01.673Z,83.42
2018-08-30T08:20:12.500Z,83.04
2018-08-30T08:21:22.618Z,82.94
2018-08-30T08:22:32.751Z,83.04
2018-08-30T08:23:42.916Z,82.27
2018-08-30T08:24:53.122Z,82.65
2018-08-30T08:26:03.495Z,82.94
2018-08-30T08:27:13.649Z,82.46
2018-08-30T08:28:23.802Z,82.56
2018-08-30T08:29:33.683Z,82.08
2018-08-30T08:30:43.866Z,82.08
2018-08-30T08:31:54.051Z,82.17
2018-08-30T08:33:04.219Z,82.17
2018-08-30T08:34:14.383Z,81.88
2018-08-30T08:35:24.579Z,82.08
2018-08-30T08:36:34.777Z,81.4
2018-08-30T08:37:45.960Z,81.7
2018-08-30T08:38:56.110Z,81.79
2018-08-30T08:40:05.762Z,81.98
2018-08-30T08:41:15.922Z,81.98
2018-08-30T08:42:25.824Z,81.88
2018-08-30T08:43:35.954Z,81.7
2018-08-30T08:44:46.118Z,81.7
2018-08-30T08:45:55.905Z,81.7
2018-08-30T08:47:06.026Z,81.4
2018-08-30T08:48:17.133Z,81.98
2018-08-30T08:49:27.031Z,81.98
2018-08-30T08:50:37.154Z,81.02
2018-08-30T08:51:47.083Z,81.6
2018-08-30T08:52:56.954Z,80.92
2018-08-30T08:54:06.222Z,81.3
2018-08-30T08:55:16.356Z,81.4
2018-08-30T08:56:26.545Z,81.6
2018-08-30T08:57:36.886Z,80.92
2018-08-30T08:58:47.292Z,80.92
2018-08-30T08:59:57.990Z,81.3
2018-08-30T09:01:08.160Z,81.12
2018-08-30T09:02:18.361Z,81.02
2018-08-30T09:03:28.503Z,81.02
2018-08-30T09:04:38.688Z,80.83
2018-08-30T09:05:48.569Z,81.12
2018-08-30T09:06:58.687Z,81.21
2018-08-30T09:08:08.521Z,80.83
2018-08-30T09:09:18.408Z,80.73
2018-08-30T09:10:28.298Z,81.21
2018-08-30T09:11:38.488Z,81.21
2018-08-30T09:12:48.017Z,80.83
2018-08-30T09:13:58.167Z,80.54
2018-08-30T09:15:08.313Z,81.12
2018-08-30T09:16:18.556Z,81.12
2018-08-30T09:17:28.725Z,80.73
2018-08-30T09:18:38.891Z,80.73
2018-08-30T09:19:49.160Z,80.83
2018-08-30T09:20:59.311Z,80.54
2018-08-30T09:22:09.469Z,80.73
2018-08-30T09:23:19.361Z,80.63
2018-08-30T09:24:29.497Z,80.44
2018-08-30T09:25:39.670Z,81.12
2018-08-30T09:26:49.919Z,80.25
2018-08-30T09:28:00.772Z,80.5
2018-08-30T09:29:10.893Z,80.88
2018-08-30T09:30:21.183Z,80.69
2018-08-30T09:31:31.392Z,80.69
2018-08-30T09:32:41.705Z,81.56
2018-08-30T09:33:51.959Z,81.37
2018-08-30T09:35:02.559Z,81.07
2018-08-30T09:36:12.777Z,81.37
2018-08-30T09:37:22.946Z,81.17
2018-08-30T09:38:33.222Z,81.75
2018-08-30T09:39:43.388Z,81.84
2018-08-30T09:40:53.547Z,81.56
2018-08-30T09:42:03.708Z,81.84
2018-08-30T09:43:13.873Z,81.84
2018-08-30T09:44:23.990Z,81.75
2018-08-30T09:45:34.130Z,82.04
2018-08-30T09:46:43.996Z,81.52
2018-08-30T09:47:54.151Z,82.19
2018-08-30T09:49:04.054Z,81.81
2018-08-30T09:50:14.205Z,81.46
2018-08-30T09:51:24.229Z,81.9
2018-08-30T09:52:34.106Z,81.99
2018-08-30T09:53:44.221Z,81.94
2018-08-30T09:54:54.131Z,81.27
2018-08-30T09:56:03.816Z,81.37
2018-08-30T09:57:13.728Z,81.07
2018-08-30T09:58:23.959Z,81.46
2018-08-30T09:59:34.116Z,81.37
2018-08-30T10:00:43.913Z,81.17
2018-08-30T10:01:54.099Z,80.88
2018-08-30T10:03:04.290Z,80.98
2018-08-30T10:04:14.438Z,81.37
2018-08-30T10:05:24.567Z,81.46
2018-08-30T10:06:34.726Z,81.56
2018-08-30T10:07:45.091Z,81.56
2018-08-30T10:08:55.222Z,80.98
2018-08-30T10:10:05.412Z,80.88
2018-08-30T10:11:16.508Z,81.27
2018-08-30T10:12:26.696Z,80.5
2018-08-30T10:13:36.913Z,80.79
2018-08-30T10:14:47.264Z,79.96
2018-08-30T10:15:57.252Z,80.25
2018-08-30T10:17:07.569Z,79.96
2018-08-30T10:18:17.728Z,79.58
2018-08-30T10:19:27.920Z,79.58
2018-08-30T10:20:39.035Z,80.35
2018-08-30T10:21:49.054Z,79.38
2018-08-30T10:22:58.676Z,79.28
2018-08-30T10:24:08.563Z,79.38
2018-08-30T10:25:18.847Z,79.23
2018-08-30T10:26:29.225Z,79.13
2018-08-30T10:27:39.560Z,78.94
2018-08-30T10:28:49.738Z,79.03
2018-08-30T10:29:59.909Z,78.56
2018-08-30T10:31:10.067Z,78.27
2018-08-30T10:32:19.963Z,77.31
2018-08-30T10:33:29.847Z,77.4
2018-08-30T10:34:40.002Z,77.4
2018-08-30T10:35:49.541Z,77.31
2018-08-30T10:36:59.754Z,77.88
2018-08-30T10:38:09.962Z,77.78
2018-08-30T10:39:20.087Z,77.88
2018-08-30T10:40:30.247Z,77.94
2018-08-30T10:41:40.407Z,78.13
2018-08-30T10:42:50.611Z,77.75
2018-08-30T10:44:00.986Z,77.84
2018-08-30T10:45:11.172Z,78.03
2018-08-30T10:46:21.308Z,77.56
2018-08-30T10:47:31.455Z,78.03
2018-08-30T10:48:41.631Z,78.23
2018-08-30T10:49:51.890Z,78.03
2018-08-30T10:51:02.413Z,77.94
2018-08-30T10:52:12.562Z,77.94
2018-08-30T10:53:22.456Z,78.61
2018-08-30T10:54:32.701Z,78.52
2018-08-30T10:55:42.631Z,78.52
2018-08-30T10:56:52.770Z,78.81
2018-08-30T10:58:03.698Z,78.42
2018-08-30T10:59:14.007Z,78.33
2018-08-30T11:00:24.134Z,78.23
2018-08-30T11:01:34.259Z,78.71
2018-08-30T11:02:44.463Z,78.61
2018-08-30T11:03:54.723Z,78.42
2018-08-30T11:05:04.921Z,78.61
2018-08-30T11:06:15.126Z,78.42
2018-08-30T11:07:25.241Z,78.42
2018-08-30T11:08:35.484Z,78.52
2018-08-30T11:09:45.688Z,77.84
2018-08-30T11:10:55.613Z,77.46
2018-08-30T11:12:05.766Z,76.98
2018-08-30T11:13:15.933Z,77.26
2018-08-30T11:14:26.237Z,77.31
2018-08-30T11:15:36.127Z,76.73
2018-08-30T11:16:46.265Z,76.34
2018-08-30T11:17:56.159Z,76.09
2018-08-30T11:19:06.196Z,76.18
2018-08-30T11:20:16.392Z,75.71
2018-08-30T11:21:26.592Z,75.65
2018-08-30T11:22:36.497Z,75.45
2018-08-30T11:23:46.645Z,74.78
2018-08-30T11:24:56.815Z,74.58
2018-08-30T11:26:06.952Z,74.58
2018-08-30T11:27:16.852Z,74.88
2018-08-30T11:28:27.035Z,74.78
2018-08-30T11:29:37.180Z,74.1
2018-08-30T11:30:47.337Z,74.3
2018-08-30T11:31:57.543Z,74.3
2018-08-30T11:33:07.725Z,74.26
2018-08-30T11:34:18.018Z,74.55
2018-08-30T11:35:29.197Z,74.74
2018-08-30T11:36:39.332Z,74.55
2018-08-30T11:37:49.793Z,74.65
2018-08-30T11:38:59.961Z,74.55
2018-08-30T11:40:10.097Z,74.84
2018-08-30T11:41:20.121Z,74.78
2018-08-30T11:42:30.786Z,74.26
2018-08-30T11:43:40.935Z,74.3
2018-08-30T11:44:51.363Z,74.1
2018-08-30T11:46:01.550Z,73.62
2018-08-30T11:47:11.803Z,73.82
2018-08-30T11:48:21.971Z,73.91
2018-08-30T11:49:32.123Z,73.82
2018-08-30T11:50:42.354Z,73.82
2018-08-30T11:51:52.271Z,73.43
2018-08-30T11:53:02.505Z,73.72
2018-08-30T11:54:12.739Z,73.33
2018-08-30T11:55:23.360Z,72.95
2018-08-30T11:56:33.544Z,72.18
2018-08-30T11:57:43.784Z,72.08
2018-08-30T11:58:53.984Z,72.18
2018-08-30T12:00:04.107Z,72.5
2018-08-30T12:01:14.035Z,72.6
2018-08-30T12:02:24.288Z,72.41
2018-08-30T12:03:34.755Z,71.34
2018-08-30T12:04:44.903Z,71
2018-08-30T12:05:54.798Z,70.42
2018-08-30T12:07:05.250Z,70.16
2018-08-30T12:08:15.846Z,70.45
2018-08-30T12:09:26.375Z,70.36
2018-08-30T12:10:36.556Z,69.29
2018-08-30T12:11:47.225Z,69.39
2018-08-30T12:12:57.407Z,68.71
2018-08-30T12:14:07.781Z,69
2018-08-30T12:15:18.019Z,69.49
2018-08-30T12:16:27.958Z,68.62
2018-08-30T12:17:38.136Z,68.13
2018-08-30T12:18:48.454Z,68.81
2018-08-30T12:19:59.128Z,68.91
2018-08-30T12:21:09.270Z,68.91
2018-08-30T12:22:19.148Z,68.07
2018-08-30T12:23:29.303Z,66.91
2018-08-30T12:24:39.486Z,66.66
2018-08-30T12:25:49.629Z,66.75
2018-08-30T12:26:59.850Z,66.46
2018-08-30T12:28:10.978Z,64.53
2018-08-30T12:29:21.017Z,64.37
2018-08-30T12:30:31.333Z,64.56
2018-08-30T12:31:41.886Z,65.2
2018-08-30T12:32:52.509Z,65.01
2018-08-30T12:34:02.993Z,65.11
2018-08-30T12:35:14.132Z,66.08
2018-08-30T12:36:24.980Z,66.24
2018-08-30T12:37:35.284Z,66.53
2018-08-30T12:38:45.372Z,67.46
2018-08-30T12:39:56.010Z,67.75
2018-08-30T12:41:07.262Z,67.85
2018-08-30T12:42:18.083Z,68.62
2018-08-30T12:43:29.012Z,68.29
2018-08-30T12:44:39.976Z,68.77
2018-08-30T12:45:50.347Z,68.87
2018-08-30T12:47:00.672Z,68.97
2018-08-30T12:48:10.787Z,68.97
2018-08-30T12:49:20.796Z,69.03
2018-08-30T12:50:31.741Z,68.68
2018-08-30T12:51:43.110Z,68.49
2018-08-30T12:52:54.108Z,68.97
2018-08-30T12:54:05.351Z,68.49
2018-08-30T12:55:16.500Z,68.52
2018-08-30T12:56:27.557Z,67.85
2018-08-30T12:57:38.643Z,66.97
2018-08-30T12:58:49.815Z,66.97
2018-08-30T13:00:01.655Z,66.59
2018-08-30T13:01:13.332Z,67.07
2018-08-30T13:02:24.598Z,67.27
2018-08-30T13:03:36.768Z,67.27
2018-08-30T13:04:47.695Z,67.46
2018-08-30T13:05:59.548Z,67.17
2018-08-30T13:07:12.429Z,67.36
2018-08-30T13:08:24.721Z,67.27
2018-08-30T13:09:37.293Z,67.65
2018-08-30T13:10:49.070Z,67.62
2018-08-30T13:12:02.482Z,68.39
2018-08-30T13:13:15.754Z,68.1
2018-08-30T13:14:28.098Z,68.77
2018-08-30T13:15:40.243Z,68.97
2018-08-30T13:16:51.625Z,69.23
2018-08-30T13:18:04.192Z,69.23
2018-08-30T13:19:16.573Z,69.71
2018-08-30T13:20:29.646Z,70
2018-08-30T13:21:42.302Z,70.28
2018-08-30T13:22:54.589Z,70.19
2018-08-30T13:24:07.191Z,70.06
2018-08-30T13:25:20.446Z,69.87
2018-08-30T13:26:33.089Z,70.35
2018-08-30T13:27:46.012Z,70.15
2018-08-30T13:28:58.755Z,70.54
2018-08-30T13:30:11.810Z,70.35
2018-08-30T13:31:25.444Z,70.92
2018-08-30T13:32:39.012Z,71.7
2018-08-30T13:33:51.455Z,71.41
2018-08-30T13:35:05.521Z,71.5
2018-08-30T13:36:19.104Z,71.5
2018-08-30T13:37:32.871Z,71.6
2018-08-30T13:38:46.192Z,71.31
2018-08-30T13:40:00.178Z,71.22
2018-08-30T13:41:14.374Z,70.44
2018-08-30T13:42:27.996Z,70.25
2018-08-30T13:43:41.787Z,70.28
2018-08-30T13:44:54.555Z,69.32
2018-08-30T13:46:07.876Z,69.23
2018-08-30T13:47:20.086Z,68.55
2018-08-30T13:48:33.021Z,68.26
2018-08-30T13:49:45.136Z,68.35
2018-08-30T13:50:57.843Z,68.07
2018-08-30T13:52:11.488Z,68.35
2018-08-30T13:53:25.239Z,68.65
2018-08-30T13:54:38.653Z,68.55
2018-08-30T13:55:52.442Z,68.65
2018-08-30T13:57:06.157Z,68.55
2018-08-30T13:58:20.116Z,68.84
2018-08-30T13:59:35.218Z,68.99
2018-08-30T14:00:50.464Z,69.29
2018-08-30T14:02:03.828Z,69.09
2018-08-30T14:03:16.724Z,69.38
2018-08-30T14:04:29.999Z,68.99
2018-08-30T14:05:42.904Z,69.38
2018-08-30T14:06:56.474Z,69.77
2018-08-30T14:08:08.692Z,69.96
2018-08-30T14:09:21.751Z,69.77
2018-08-30T14:10:35.210Z,69.48
2018-08-30T14:11:47.471Z,69.96
2018-08-30T14:13:01.036Z,70.06
2018-08-30T14:14:13.947Z,70.02
2018-08-30T14:15:26.731Z,70.06
2018-08-30T14:16:38.941Z,70.21
2018-08-30T14:17:49.184Z,70.44
2018-08-30T14:18:59.985Z,70.5
2018-08-30T14:20:10.419Z,70.41
2018-08-30T14:21:20.514Z,70.7
2018-08-30T14:22:30.866Z,70.5
2018-08-30T14:23:41.139Z,70.41
2018-08-30T14:24:51.559Z,70.5
2018-08-30T14:26:01.802Z,70.5
2018-08-30T14:27:12.124Z,70.98
2018-08-30T14:28:22.521Z,71.47
2018-08-30T14:29:32.858Z,71.85
2018-08-30T14:30:43.265Z,71.56
2018-08-30T14:31:53.450Z,71.53
2018-08-30T14:33:04.003Z,71.24
2018-08-30T14:34:14.536Z,71.34
2018-08-30T14:35:24.816Z,71.91
2018-08-30T14:36:35.158Z,71.53
2018-08-30T14:37:45.699Z,71.91
2018-08-30T14:38:56.348Z,71.91
2018-08-30T14:40:07.011Z,72.3
2018-08-30T14:41:18.072Z,72.3
2018-08-30T14:42:29.386Z,72.88
2018-08-30T14:43:39.705Z,73.65
2018-08-30T14:44:50.008Z,73.74
2018-08-30T14:46:00.726Z,73.84
2018-08-30T14:47:10.819Z,74.57
2018-08-30T14:48:21.855Z,74.38
2018-08-30T14:49:31.995Z,75.15
2018-08-30T14:50:42.210Z,74.67
2018-08-30T14:51:52.407Z,74.38
2018-08-30T14:53:02.635Z,75.44
2018-08-30T14:54:13.277Z,75.63
2018-08-30T14:55:23.841Z,75.73
2018-08-30T14:56:34.119Z,75.73
2018-08-30T14:57:44.361Z,75.92
2018-08-30T14:58:54.588Z,76.01
2018-08-30T15:00:04.564Z,76.4
2018-08-30T15:01:15.092Z,77.36
2018-08-30T15:02:25.374Z,77.56
2018-08-30T15:03:35.654Z,77.94
2018-08-30T15:04:45.673Z,78.03
2018-08-30T15:05:56.364Z,77.36
2018-08-30T15:07:07.243Z,78.33
2018-08-30T15:08:17.196Z,77.75
2018-08-30T15:09:27.288Z,77.75
2018-08-30T15:10:37.442Z,78.71
2018-08-30T15:11:47.590Z,79.1